Time;durP1;ratioP1;P1;durP2;ratioP2;P2;SDS_P1;SDS_P2;PMS_P1;PMS_P2;Temp;Humidity;BMP_temperature;BMP_pressure;BME280_temperature;BME280_humidity;BME280_pressure;Samples;Min_cycle;Max_cycle;Signal;HPM_P1;HPM_P2
2022/09/05 00:02:16;;;;;;;5.13;3.00;;;;;;;16.46;100.00;96711.75;5008217;28;20203;-75
2022/09/05 00:04:50;;;;;;;3.53;3.00;;;;;;;16.46;100.00;96717.19;5022057;28;20216;-74
2022/09/05 00:07:24;;;;;;;5.80;3.40;;;;;;;16.48;100.00;96715.03;5003117;28;20229;-75
2022/09/05 00:10:05;;;;;;;4.40;3.17;;;;;;;16.50;100.00;96712.84;5017932;28;20210;-74
2022/09/05 00:12:34;;;;;;;4.10;2.90;;;;;;;16.48;100.00;96706.88;5024075;28;20281;-74
2022/09/05 00:15:22;;;;;;;3.73;3.23;;;;;;;16.43;100.00;96714.16;5022188;28;20214;-75
2022/09/05 00:18:27;;;;;;;7.50;3.37;;;;;;;16.30;100.00;96709.97;5004302;28;20200;-74
2022/09/05 00:21:05;;;;;;;3.57;3.17;;;;;;;16.33;100.00;96714.91;5000337;28;20297;-75
2022/09/05 00:23:43;;;;;;;4.87;2.90;;;;;;;16.40;100.00;96715.50;5018602;28;20265;-74
2022/09/05 00:26:29;;;;;;;4.30;3.30;;;;;;;16.46;100.00;96703.56;5022603;28;20211;-74
2022/09/05 00:29:06;;;;;;;3.60;3.13;;;;;;;16.50;100.00;96707.41;5019342;28;20223;-75
2022/09/05 00:31:48;;;;;;;4.63;2.90;;;;;;;16.53;100.00;96703.34;5008338;28;20286;-74
2022/09/05 00:34:29;;;;;;;5.17;3.37;;;;;;;16.52;100.00;96704.44;5003648;28;20341;-74
2022/09/05 00:36:56;;;;;;;3.27;2.97;;;;;;;16.49;100.00;96704.97;5003821;28;20231;-75
2022/09/05 00:39:28;;;;;;;4.47;3.20;;;;;;;16.42;100.00;96707.88;5019337;28;20231;-74
2022/09/05 00:41:59;;;;;;;4.63;2.90;;;;;;;16.35;100.00;96699.09;5008208;28;20204;-74
2022/09/05 00:44:31;;;;;;;5.90;3.40;;;;;;;16.38;100.00;96700.47;5001785;28;20266;-74
2022/09/05 00:47:06;;;;;;;3.23;2.93;;;;;;;16.44;100.00;96694.81;5006867;28;20223;-74
2022/09/05 00:49:39;;;;;;;3.73;3.30;;;;;;;16.45;100.00;96693.75;5025438;28;20293;-74
2022/09/05 00:52:12;;;;;;;6.57;3.00;;;;;;;16.54;100.00;96694.91;5004848;28;20203;-74
2022/09/05 00:55:04;;;;;;;5.30;2.70;;;;;;;16.60;100.00;96701.22;5005217;28;20227;-74
2022/09/05 00:58:00;;;;;;;4.40;2.90;;;;;;;16.63;100.00;96696.13;5006570;28;20219;-74
2022/09/05 01:00:38;;;;;;;3.30;3.00;;;;;;;16.69;100.00;96702.41;5009951;28;20211;-74
2022/09/05 01:03:36;;;;;;;3.27;2.80;;;;;;;16.73;100.00;96705.47;5031451;28;20215;-74
2022/09/05 01:06:34;;;;;;;3.30;3.00;;;;;;;16.72;100.00;96712.81;5010673;28;20311;-75
2022/09/05 01:09:33;;;;;;;4.13;3.37;;;;;;;16.66;100.00;96704.88;5009947;28;20212;-75
2022/09/05 01:12:17;;;;;;;5.13;3.43;;;;;;;16.54;100.00;96697.63;5004009;28;20294;-74
2022/09/05 01:15:21;;;;;;;4.17;3.50;;;;;;;16.49;100.00;96703.06;5010120;28;20199;-75
2022/09/05 01:18:02;;;;;;;3.60;3.30;;;;;;;16.42;100.00;96699.69;4979173;28;20223;-74
2022/09/05 01:20:55;;;;;;;4.63;3.07;;;;;;;16.37;100.00;96696.94;4995943;28;20307;-74
2022/09/05 01:23:57;;;;;;;3.27;2.93;;;;;;;16.32;100.00;96699.63;5018840;28;20203;-74
2022/09/05 01:26:45;;;;;;;3.30;3.00;;;;;;;16.30;100.00;96700.97;5020851;28;20230;-74
2022/09/05 01:29:25;;;;;;;4.97;3.20;;;;;;;16.24;100.00;96691.91;5004958;28;20277;-74
2022/09/05 01:32:08;;;;;;;3.33;3.03;;;;;;;16.18;100.00;96693.75;5004561;28;20210;-74
2022/09/05 01:34:47;;;;;;;4.90;3.40;;;;;;;16.07;100.00;96689.31;5022997;28;20198;-74
2022/09/05 01:37:21;;;;;;;4.17;3.17;;;;;;;16.06;100.00;96686.81;5019795;28;20261;-75
2022/09/05 01:39:57;;;;;;;3.10;2.90;;;;;;;16.04;100.00;96688.97;5021011;28;20238;-74
2022/09/05 01:42:37;;;;;;;5.03;3.03;;;;;;;15.96;100.00;96690.25;5021977;28;20215;-75
2022/09/05 01:45:15;;;;;;;3.80;3.10;;;;;;;15.94;100.00;96686.13;5018008;28;20211;-74
2022/09/05 01:47:51;;;;;;;6.80;3.10;;;;;;;15.97;100.00;96674.75;5016319;28;20224;-75
2022/09/05 01:50:43;;;;;;;3.30;2.90;;;;;;;15.93;100.00;96684.50;5004256;28;20214;-75
2022/09/05 01:53:28;;;;;;;7.17;3.03;;;;;;;15.93;100.00;96684.50;5019286;28;20211;-75
2022/09/05 01:56:23;;;;;;;4.23;2.90;;;;;;;15.91;100.00;96668.41;5022127;28;20214;-74
2022/09/05 01:58:59;;;;;;;3.33;3.03;;;;;;;15.78;100.00;96676.97;5006476;28;20199;-74
2022/09/05 02:01:40;;;;;;;6.20;3.30;;;;;;;15.75;100.00;96681.03;5002123;28;20298;-74
2022/09/05 02:04:43;;;;;;;4.87;3.37;;;;;;;15.77;100.00;96680.78;5002637;28;20203;-74
2022/09/05 02:07:24;;;;;;;5.83;3.23;;;;;;;15.76;100.00;96676.41;4998172;28;20247;-74
2022/09/05 02:10:18;;;;;;;3.40;3.10;;;;;;;15.74;100.00;96665.75;5016073;28;20222;-75
2022/09/05 02:12:49;;;;;;;4.20;2.90;;;;;;;15.74;100.00;96663.03;5001596;28;20235;-75
2022/09/05 02:15:21;;;;;;;4.43;3.00;;;;;;;15.74;100.00;96662.22;5002571;28;20207;-74
2022/09/05 02:17:53;;;;;;;6.50;3.13;;;;;;;15.76;100.00;96657.34;5018037;28;20214;-74
2022/09/05 02:20:26;;;;;;;4.67;2.97;;;;;;;15.78;100.00;96661.47;5029823;28;20268;-74
2022/09/05 02:23:03;;;;;;;4.40;3.30;;;;;;;15.80;100.00;96670.22;5020105;28;20283;-74
2022/09/05 02:25:44;;;;;;;3.30;2.83;;;;;;;15.80;100.00;96658.50;5004965;28;20207;-75
2022/09/05 02:28:15;;;;;;;4.83;2.90;;;;;;;15.78;100.00;96664.19;5006580;28;20227;-74
2022/09/05 02:30:48;;;;;;;5.73;3.30;;;;;;;15.76;100.00;96663.63;5017778;28;20253;-74
2022/09/05 02:33:23;;;;;;;4.10;3.20;;;;;;;15.71;100.00;96652.69;5004192;28;20200;-74
2022/09/05 02:35:59;;;;;;;5.80;3.80;;;;;;;15.69;100.00;96652.09;5011543;28;20216;-74
2022/09/05 02:38:38;;;;;;;5.07;3.60;;;;;;;15.62;100.00;96656.09;5005816;28;20194;-74
2022/09/05 02:41:18;;;;;;;7.23;3.47;;;;;;;15.63;100.00;96653.13;5014229;28;20231;-74
2022/09/05 02:43:52;;;;;;;3.60;3.30;;;;;;;15.65;100.00;96656.41;5023128;28;20217;-74
2022/09/05 02:46:28;;;;;;;5.53;2.90;;;;;;;15.64;100.00;96649.34;5023765;28;20210;-75
2022/09/05 02:49:02;;;;;;;3.60;3.30;;;;;;;15.64;100.00;96654.78;5017879;28;20231;-74
2022/09/05 02:51:34;;;;;;;3.97;3.50;;;;;;;15.55;100.00;96639.16;5022744;28;20314;-75
2022/09/05 02:54:07;;;;;;;5.23;3.37;;;;;;;15.52;100.00;96645.88;5023123;28;20204;-74
2022/09/05 02:56:52;;;;;;;6.27;3.70;;;;;;;15.57;100.00;96640.53;5004311;28;20250;-74
2022/09/05 02:59:39;;;;;;;5.63;3.00;;;;;;;15.66;100.00;96638.19;5023288;28;20274;-74
2022/09/05 03:02:16;;;;;;;3.00;2.70;;;;;;;15.80;100.00;96636.72;5020259;28;20207;-74
2022/09/05 03:04:51;;;;;;;4.47;2.90;;;;;;;15.97;100.00;96631.16;4993555;28;20220;-74
2022/09/05 03:07:40;;;;;;;3.40;3.10;;;;;;;16.22;100.00;96639.59;5015726;28;20318;-74
2022/09/05 03:10:40;;;;;;;3.40;2.60;;;;;;;16.62;100.00;96634.50;5015418;28;20302;-75
2022/09/05 03:13:40;;;;;;;2.83;2.53;;;;;;;16.95;100.00;96635.25;4996906;28;20203;-74
2022/09/05 03:16:45;;;;;;;2.53;2.33;;;;;;;17.15;100.00;96631.81;4997750;28;20211;-74
2022/09/05 03:20:01;;;;;;;3.30;2.70;;;;;;;17.44;100.00;96643.16;5002962;28;20431;-74
2022/09/05 03:22:52;;;;;;;3.77;3.10;;;;;;;17.39;100.00;96635.75;4904158;29;20301;-75
2022/09/05 03:25:42;;;;;;;4.60;4.20;;;;;;;17.14;100.00;96625.53;4927412;29;20382;-74
2022/09/05 03:28:48;;;;;;;4.27;3.30;;;;;;;16.92;100.00;96643.97;4995537;28;20323;-75
2022/09/05 03:31:55;;;;;;;6.33;3.60;;;;;;;16.76;100.00;96640.28;4989490;28;20211;-74
2022/09/05 03:35:03;;;;;;;3.03;2.73;;;;;;;16.90;100.00;96643.41;4991815;28;20215;-74
2022/09/05 03:37:52;;;;;;;2.60;2.40;;;;;;;17.19;100.00;96635.66;5018556;28;20204;-74
2022/09/05 03:41:01;;;;;;;3.40;2.63;;;;;;;17.49;100.00;96634.97;4998599;28;20267;-74
2022/09/05 03:43:51;;;;;;;2.40;2.20;;;;;;;17.68;100.00;96638.91;4943284;28;20268;-75
2022/09/05 03:46:33;;;;;;;2.60;2.40;;;;;;;17.97;100.00;96629.16;5012443;28;20231;-74
2022/09/05 03:49:24;;;;;;;2.40;2.20;;;;;;;18.28;96.40;96632.75;4999296;28;20493;-74
2022/09/05 03:52:03;;;;;;;2.90;2.60;;;;;;;18.41;94.35;96628.66;5016011;28;20205;-74
2022/09/05 03:54:57;;;;;;;2.40;2.10;;;;;;;18.46;94.76;96621.25;5009034;28;20229;-75
2022/09/05 03:57:47;;;;;;;3.23;2.20;;;;;;;18.52;93.60;96622.91;5022767;28;20289;-75
2022/09/05 04:00:22;;;;;;;2.53;2.33;;;;;;;18.68;91.97;96621.03;5020382;28;20212;-74
2022/09/05 04:03:05;;;;;;;4.27;2.33;;;;;;;18.70;91.51;96618.84;5018529;28;20186;-74
2022/09/05 04:05:39;;;;;;;4.30;2.40;;;;;;;18.78;90.57;96615.53;5021500;28;20227;-75
2022/09/05 04:08:11;;;;;;;2.60;2.40;;;;;;;18.77;90.84;96627.59;5013848;28;20238;-75
2022/09/05 04:10:50;;;;;;;3.20;2.47;;;;;;;18.74;91.52;96622.66;5007625;28;20219;-74
2022/09/05 04:13:23;;;;;;;3.23;2.40;;;;;;;18.71;91.57;96616.94;5007775;28;20218;-75
2022/09/05 04:16:03;;;;;;;4.20;2.23;;;;;;;18.67;90.57;96629.50;5005970;28;20222;-74
2022/09/05 04:18:37;;;;;;;2.43;2.23;;;;;;;18.70;90.87;96623.50;5005868;28;20204;-75
2022/09/05 04:21:10;;;;;;;5.57;2.67;;;;;;;18.74;90.22;96627.31;5021256;28;20207;-75
2022/09/05 04:23:58;;;;;;;2.83;2.63;;;;;;;18.79;89.99;96632.78;5008284;28;20231;-75
2022/09/05 04:26:49;;;;;;;2.60;2.40;;;;;;;18.78;90.33;96637.44;5002698;28;20223;-75
2022/09/05 04:29:28;;;;;;;2.43;2.20;;;;;;;18.70;90.92;96640.72;5007899;28;20223;-74
2022/09/05 04:32:01;;;;;;;3.55;2.53;;;;;;;18.65;92.01;96645.34;5021195;28;20301;-75
2022/09/05 04:34:40;;;;;;;5.80;2.50;;;;;;;18.42;98.40;96641.22;5004101;28;20235;-73
2022/09/05 04:37:10;;;;;;;4.43;3.03;;;;;;;18.20;100.00;96648.88;5021010;28;20214;-74
2022/09/05 04:39:38;;;;;;;5.23;3.20;;;;;;;17.98;100.00;96647.19;5015219;28;20239;-73
2022/09/05 04:42:20;;;;;;;3.80;3.03;;;;;;;17.87;100.00;96656.44;5022794;28;20208;-75
2022/09/05 04:44:51;;;;;;;4.47;2.30;;;;;;;17.88;100.00;96660.00;5010992;28;20295;-74
2022/09/05 04:47:23;;;;;;;4.20;3.00;;;;;;;17.77;100.00;96656.44;5021999;28;20219;-74
2022/09/05 04:49:57;;;;;;;3.60;2.93;;;;;;;17.60;100.00;96653.88;5003870;28;20219;-74
2022/09/05 04:52:44;;;;;;;4.33;2.93;;;;;;;17.48;100.00;96663.38;5020202;28;20207;-73
2022/09/05 04:55:13;;;;;;;4.40;2.77;;;;;;;17.38;100.00;96664.97;5020424;28;20218;-75
2022/09/05 04:57:49;;;;;;;6.47;3.23;;;;;;;17.30;100.00;96656.47;4995701;28;20219;-74
2022/09/05 05:00:24;;;;;;;3.30;2.93;;;;;;;17.25;100.00;96662.72;5004141;28;20295;-73
2022/09/05 05:02:55;;;;;;;2.80;2.60;;;;;;;17.23;100.00;96667.63;5005010;28;20210;-74
2022/09/05 05:05:24;;;;;;;2.97;2.67;;;;;;;17.28;100.00;96670.38;5011488;28;20215;-74
2022/09/05 05:07:57;;;;;;;3.37;2.67;;;;;;;17.52;100.00;96664.50;5005996;28;20259;-74
2022/09/05 05:10:32;;;;;;;3.33;2.50;;;;;;;17.76;100.00;96676.63;5017372;28;20211;-74
2022/09/05 05:13:07;;;;;;;3.37;2.73;;;;;;;18.01;98.45;96678.63;4996238;28;20262;-74
2022/09/05 05:15:44;;;;;;;3.70;2.47;;;;;;;18.23;97.13;96670.19;5004978;28;20199;-74
2022/09/05 05:18:21;;;;;;;3.87;2.63;;;;;;;18.31;96.91;96684.13;5021412;28;20274;-74
2022/09/05 05:20:54;;;;;;;2.87;2.37;;;;;;;18.38;96.50;96675.66;5018748;28;20245;-74
2022/09/05 05:23:32;;;;;;;2.50;2.30;;;;;;;18.42;97.99;96687.72;5023970;28;20379;-74
2022/09/05 05:26:03;;;;;;;4.20;2.50;;;;;;;18.45;96.27;96687.19;5017675;28;20215;-74
2022/09/05 05:28:47;;;;;;;3.90;2.43;;;;;;;18.59;94.13;96690.22;5006583;28;20468;-73
2022/09/05 05:31:18;;;;;;;2.38;2.17;;;;;;;18.63;95.96;96697.59;5000704;28;20208;-74
2022/09/05 05:33:49;;;;;;;4.23;2.57;;;;;;;18.64;94.82;96699.25;5015852;28;20225;-75
2022/09/05 05:36:23;;;;;;;2.87;2.63;;;;;;;18.57;98.04;96701.44;5019893;28;20296;-74
2022/09/05 05:38:57;;;;;;;5.43;3.40;;;;;;;18.35;100.00;96711.78;5008786;28;20260;-74
2022/09/05 05:41:33;;;;;;;5.27;3.07;;;;;;;18.17;100.00;96715.81;5002628;28;20207;-74
2022/09/05 05:44:14;;;;;;;5.53;3.00;;;;;;;17.95;100.00;96712.50;5022963;28;20213;-75
2022/09/05 05:46:46;;;;;;;5.23;3.33;;;;;;;17.79;100.00;96717.03;5022862;28;20219;-74
2022/09/05 05:49:26;;;;;;;4.97;2.87;;;;;;;17.61;100.00;96721.03;5003896;28;20293;-74
2022/09/05 05:52:12;;;;;;;4.53;3.20;;;;;;;17.45;100.00;96718.50;5002891;28;20218;-75
2022/09/05 05:54:47;;;;;;;7.20;3.70;;;;;;;17.36;100.00;96719.00;5002125;28;20219;-74
2022/09/05 05:57:52;;;;;;;5.93;3.47;;;;;;;17.36;100.00;96720.91;5003231;28;20230;-75
2022/09/05 06:00:24;;;;;;;3.40;3.10;;;;;;;17.32;100.00;96725.25;5007213;28;20226;-74
2022/09/05 06:03:38;;;;;;;7.60;3.40;;;;;;;17.31;100.00;96724.44;5021255;28;20213;-75
2022/09/05 06:06:15;;;;;;;6.50;3.50;;;;;;;17.21;100.00;96735.28;5000422;28;20231;-75
2022/09/05 06:09:22;;;;;;;5.23;3.77;;;;;;;17.17;100.00;96736.91;5002911;28;20227;-74
2022/09/05 06:12:25;;;;;;;6.27;3.60;;;;;;;17.22;100.00;96747.03;5003308;28;20203;-75
2022/09/05 06:15:37;;;;;;;8.93;4.10;;;;;;;17.27;100.00;96764.25;5002741;28;20211;-74
2022/09/05 06:18:31;;;;;;;5.03;3.47;;;;;;;17.33;100.00;96757.75;4939779;28;20214;-74
2022/09/05 06:21:23;;;;;;;8.63;3.63;;;;;;;17.31;100.00;96753.63;4997332;28;20600;-74
2022/09/05 06:24:11;;;;;;;4.57;3.60;;;;;;;17.32;100.00;96744.38;5005610;28;20203;-74
2022/09/05 06:27:12;;;;;;;9.93;4.33;;;;;;;17.36;100.00;96742.72;5003170;28;20201;-74
2022/09/05 06:29:54;;;;;;;3.90;3.23;;;;;;;17.38;100.00;96732.38;4995743;28;20216;-75
2022/09/05 06:32:36;;;;;;;4.13;3.47;;;;;;;17.37;100.00;96739.75;5016127;28;20200;-74
2022/09/05 06:35:30;;;;;;;4.13;3.03;;;;;;;17.30;100.00;96751.97;5006231;28;20298;-74
2022/09/05 06:38:25;;;;;;;6.63;3.33;;;;;;;17.28;100.00;96754.16;4999706;28;20314;-74
2022/09/05 06:41:07;;;;;;;5.87;3.73;;;;;;;17.37;100.00;96756.13;5016609;28;20211;-74
2022/09/05 06:44:14;;;;;;;4.37;3.60;;;;;;;17.31;100.00;96756.34;5014005;28;20207;-74
2022/09/05 06:46:43;;;;;;;7.10;3.50;;;;;;;17.25;100.00;96762.88;5015152;28;20223;-75
2022/09/05 06:49:17;;;;;;;5.77;3.93;;;;;;;17.22;100.00;96758.75;4997098;28;20219;-75
2022/09/05 06:52:16;;;;;;;5.93;4.10;;;;;;;17.18;100.00;96757.63;5003122;28;20234;-75
2022/09/05 06:55:13;;;;;;;6.43;3.50;;;;;;;17.12;100.00;96761.41;4997518;28;20210;-75
2022/09/05 06:58:21;;;;;;;5.40;3.70;;;;;;;17.16;100.00;96756.25;5005740;28;20298;-74
2022/09/05 07:00:50;;;;;;;5.70;3.33;;;;;;;17.25;100.00;96774.63;4988488;28;20214;-74
2022/09/05 07:03:29;;;;;;;3.37;3.07;;;;;;;17.30;100.00;96769.19;5003684;28;20215;-75
2022/09/05 07:06:01;;;;;;;5.20;3.50;;;;;;;17.40;100.00;96769.25;5007166;28;20199;-74
2022/09/05 07:08:43;;;;;;;4.47;3.57;;;;;;;17.50;100.00;96767.69;5007892;28;20242;-74
2022/09/05 07:11:16;;;;;;;6.43;3.90;;;;;;;17.60;100.00;96775.94;5015753;28;20210;-75
2022/09/05 07:13:54;;;;;;;7.43;3.87;;;;;;;17.70;100.00;96771.34;5011101;28;20214;-75
2022/09/05 07:16:32;;;;;;;5.50;3.60;;;;;;;17.83;100.00;96774.72;4996257;28;20211;-75
2022/09/05 07:19:10;;;;;;;4.77;3.47;;;;;;;17.94;100.00;96782.72;5020767;28;20227;-74
2022/09/05 07:21:44;;;;;;;4.60;3.50;;;;;;;18.06;100.00;96777.81;5003633;28;20207;-74
2022/09/05 07:24:18;;;;;;;3.67;3.37;;;;;;;18.18;100.00;96783.06;5008292;28;20275;-75
2022/09/05 07:26:48;;;;;;;6.07;3.30;;;;;;;18.32;100.00;96783.38;5005099;28;20211;-75
2022/09/05 07:29:20;;;;;;;7.47;3.20;;;;;;;18.38;100.00;96780.38;5014405;28;20224;-75
2022/09/05 07:31:53;;;;;;;6.15;3.28;;;;;;;18.45;100.00;96778.25;5004174;28;20247;-74
2022/09/05 07:34:25;;;;;;;7.23;3.60;;;;;;;18.59;100.00;96783.22;5002035;28;20215;-75
2022/09/05 07:36:56;;;;;;;5.00;3.08;;;;;;;18.72;100.00;96780.75;5012378;28;20226;-75
2022/09/05 07:39:28;;;;;;;4.90;3.40;;;;;;;18.83;100.00;96785.16;5004316;28;20261;-75
2022/09/05 07:41:59;;;;;;;5.05;3.30;;;;;;;18.96;100.00;96789.28;5009893;28;20235;-74
2022/09/05 07:44:30;;;;;;;3.65;3.35;;;;;;;19.05;100.00;96789.56;5025212;28;20226;-74
2022/09/05 07:47:03;;;;;;;4.20;3.20;;;;;;;19.14;100.00;96796.16;5008920;28;20218;-75
2022/09/05 07:49:33;;;;;;;3.97;3.13;;;;;;;19.24;100.00;96804.34;5000895;28;20266;-76
2022/09/05 07:52:06;;;;;;;4.32;3.20;;;;;;;19.32;100.00;96792.81;5004094;28;20211;-76
2022/09/05 07:54:40;;;;;;;4.43;2.80;;;;;;;19.37;100.00;96794.75;5004152;28;20200;-76
2022/09/05 07:57:10;;;;;;;3.78;3.45;;;;;;;19.48;100.00;96790.94;5022942;28;20249;-76
2022/09/05 07:59:40;;;;;;;7.65;3.60;;;;;;;19.49;100.00;96790.66;5022309;28;20199;-75
2022/09/05 08:02:10;;;;;;;5.50;3.38;;;;;;;19.52;100.00;96797.50;5018494;28;20230;-75
2022/09/05 08:04:39;;;;;;;6.45;3.55;;;;;;;19.57;100.00;96789.25;4999885;28;20280;-75
2022/09/05 08:07:11;;;;;;;3.45;3.10;;;;;;;19.65;100.00;96792.25;5006606;28;20246;-75
2022/09/05 08:09:46;;;;;;;6.80;3.90;;;;;;;19.79;100.00;96797.19;5010891;28;20230;-75
2022/09/05 08:12:16;;;;;;;5.38;3.65;;;;;;;19.95;100.00;96790.56;5022979;28;20210;-75
2022/09/05 08:14:51;;;;;;;4.63;3.17;;;;;;;20.05;100.00;96793.25;5025236;28;20234;-75
2022/09/05 08:17:21;;;;;;;6.65;3.20;;;;;;;20.16;100.00;96788.56;5003840;28;20301;-75
2022/09/05 08:20:14;;;;;;;4.35;3.45;;;;;;;20.31;100.00;96789.31;5018864;28;20211;-75
2022/09/05 08:22:49;;;;;;;4.28;3.50;;;;;;;20.47;100.00;96798.31;5012597;28;20212;-75
2022/09/05 08:25:21;;;;;;;3.90;3.00;;;;;;;20.60;100.00;96792.19;5004174;28;20233;-75
2022/09/05 08:28:01;;;;;;;5.60;3.40;;;;;;;20.72;100.00;96789.94;5018698;28;20208;-75
2022/09/05 08:30:37;;;;;;;3.65;3.15;;;;;;;20.90;100.00;96782.97;5033910;28;20274;-75
2022/09/05 08:33:10;;;;;;;5.32;3.00;;;;;;;21.11;100.00;96784.44;5009864;28;20273;-75
2022/09/05 08:35:43;;;;;;;4.90;3.10;;;;;;;21.33;100.00;96784.03;5019882;28;20312;-75
2022/09/05 08:38:13;;;;;;;3.70;3.08;;;;;;;21.59;100.00;96781.03;5012385;28;20205;-75
2022/09/05 08:40:52;;;;;;;4.53;3.10;;;;;;;21.62;100.00;96778.50;5004217;28;20208;-75
2022/09/05 08:43:34;;;;;;;4.97;3.15;;;;;;;21.80;100.00;96777.78;5003731;28;20301;-75
2022/09/05 08:46:06;;;;;;;4.13;3.40;;;;;;;22.06;99.67;96785.78;5002456;28;20207;-75
2022/09/05 08:48:52;;;;;;;3.17;2.60;;;;;;;22.10;98.55;96781.34;4997699;28;20208;-75
2022/09/05 08:51:38;;;;;;;5.22;3.50;;;;;;;22.08;97.66;96784.38;5007116;28;20248;-76
2022/09/05 08:54:16;;;;;;;8.50;3.33;;;;;;;22.15;97.40;96784.84;5022414;28;20199;-76
2022/09/05 08:56:53;;;;;;;3.67;2.95;;;;;;;22.16;98.09;96791.16;5023922;28;20222;-75
2022/09/05 08:59:31;;;;;;;7.28;3.10;;;;;;;22.22;98.38;96789.97;5018320;28;20215;-76
2022/09/05 09:02:22;;;;;;;4.70;3.10;;;;;;;22.27;99.99;96792.69;5001296;28;20470;-75
2022/09/05 09:05:06;;;;;;;3.67;3.10;;;;;;;22.47;98.28;96789.66;5009492;28;20293;-75
2022/09/05 09:07:39;;;;;;;6.30;3.47;;;;;;;22.54;94.64;96786.56;5012272;28;20215;-76
2022/09/05 09:10:26;;;;;;;3.55;3.17;;;;;;;22.68;92.97;96792.16;5017114;28;20256;-75
2022/09/05 09:13:22;;;;;;;4.90;3.08;;;;;;;22.91;93.80;96791.28;5021022;28;20222;-76
2022/09/05 09:16:03;;;;;;;3.47;2.75;;;;;;;23.06;88.20;96793.78;5004622;28;20208;-76
2022/09/05 09:18:44;;;;;;;7.18;2.97;;;;;;;23.26;87.83;96776.13;5003739;28;20211;-75
2022/09/05 09:21:34;;;;;;;5.13;2.70;;;;;;;23.39;87.76;96781.66;5004232;28;20202;-76
2022/09/05 09:24:12;;;;;;;3.38;3.08;;;;;;;23.49;84.78;96774.38;5010639;28;20195;-76
2022/09/05 09:26:47;;;;;;;5.47;3.00;;;;;;;23.68;84.33;96772.38;5003702;28;20226;-76
2022/09/05 09:29:18;;;;;;;3.92;3.00;;;;;;;23.78;85.82;96769.44;5001907;28;20231;-75
2022/09/05 09:31:59;;;;;;;5.20;3.03;;;;;;;23.83;85.20;96768.53;5005096;28;20342;-76
2022/09/05 09:34:48;;;;;;;3.88;2.88;;;;;;;23.89;83.75;96770.91;4996095;28;20211;-75
2022/09/05 09:37:57;;;;;;;2.95;2.58;;;;;;;23.92;78.30;96764.75;4999590;28;20265;-75
2022/09/05 09:40:42;;;;;;;3.92;3.00;;;;;;;24.07;78.41;96761.69;4995109;28;20346;-76
2022/09/05 09:43:21;;;;;;;4.10;2.60;;;;;;;24.14;76.57;96753.84;5004479;28;20199;-75
2022/09/05 09:46:16;;;;;;;3.28;2.90;;;;;;;24.36;75.57;96755.88;5012772;28;20294;-76
2022/09/05 09:49:08;;;;;;;2.65;2.45;;;;;;;24.46;76.93;96755.69;5000570;28;20208;-76
2022/09/05 09:52:01;;;;;;;3.38;2.50;;;;;;;24.52;77.26;96757.19;5002169;28;20207;-76
2022/09/05 09:55:12;;;;;;;5.35;2.90;;;;;;;24.46;78.78;96755.69;5018214;28;20204;-76
2022/09/05 09:58:03;;;;;;;3.42;2.60;;;;;;;24.74;75.24;96750.91;5002297;28;20231;-76
2022/09/05 10:00:50;;;;;;;9.52;3.75;;;;;;;24.76;75.98;96745.06;5005313;28;20359;-76
2022/09/05 10:03:36;;;;;;;2.70;2.50;;;;;;;24.94;73.21;96748.81;5008796;28;20317;-76
2022/09/05 10:06:43;;;;;;;2.50;2.30;;;;;;;24.76;73.21;96748.63;5031962;28;20256;-77
2022/09/05 10:09:28;;;;;;;4.32;2.50;;;;;;;24.91;73.19;96736.47;5009287;28;20261;-76
2022/09/05 10:12:22;;;;;;;2.92;2.50;;;;;;;25.24;68.91;96737.03;5011529;28;20277;-76
2022/09/05 10:15:19;;;;;;;2.92;2.40;;;;;;;25.57;68.84;96730.09;5008148;28;20206;-76
2022/09/05 10:18:02;;;;;;;2.80;2.60;;;;;;;25.77;68.06;96733.47;5016581;28;20217;-76
2022/09/05 10:20:48;;;;;;;3.80;2.78;;;;;;;25.94;66.15;96719.72;5003091;28;20243;-76
2022/09/05 10:23:39;;;;;;;3.40;2.85;;;;;;;26.10;65.57;96737.53;5017209;28;20214;-76
2022/09/05 10:26:32;;;;;;;2.55;2.35;;;;;;;25.89;68.14;96726.19;5020221;28;20204;-80
2022/09/05 10:29:06;;;;;;;2.90;2.50;;;;;;;25.48;67.90;96720.94;5015752;28;20230;-76
2022/09/05 10:31:55;;;;;;;2.60;2.40;;;;;;;25.00;70.38;96712.50;5021924;28;20233;-76
2022/09/05 10:34:25;;;;;;;2.90;2.50;;;;;;;24.72;70.21;96714.50;5019425;28;20219;-76
2022/09/05 10:36:58;;;;;;;3.20;2.90;;;;;;;24.57;71.58;96716.81;5020988;28;20222;-77
2022/09/05 10:39:30;;;;;;;3.70;2.80;;;;;;;24.43;74.08;96706.59;5008111;28;20304;-77
2022/09/05 10:42:01;;;;;;;2.83;2.63;;;;;;;24.43;76.52;96711.31;5024055;28;20199;-76
2022/09/05 10:44:37;;;;;;;3.40;2.85;;;;;;;24.17;78.36;96704.66;5022216;28;20207;-76
2022/09/05 10:47:22;;;;;;;3.97;2.80;;;;;;;23.89;80.72;96707.47;5011903;28;20214;-76
2022/09/05 10:49:50;;;;;;;3.72;2.60;;;;;;;23.59;86.98;96700.59;5014501;28;20254;-76
2022/09/05 10:52:23;;;;;;;5.60;2.83;;;;;;;23.30;85.49;96695.34;5024199;28;20206;-76
2022/09/05 10:55:17;;;;;;;4.68;2.70;;;;;;;23.16;91.26;96696.41;5017428;28;20303;-76
2022/09/05 10:57:58;;;;;;;6.22;3.00;;;;;;;23.02;90.84;96702.69;4998660;28;20244;-75
2022/09/05 11:00:49;;;;;;;6.50;3.35;;;;;;;23.05;94.99;96697.72;5002563;28;20237;-76
2022/09/05 11:03:22;;;;;;;4.10;2.90;;;;;;;23.12;97.81;96695.38;5023765;28;20203;-75
2022/09/05 11:05:55;;;;;;;3.22;2.63;;;;;;;23.03;98.23;96673.22;5029038;28;20355;-76
2022/09/05 11:08:31;;;;;;;2.92;2.70;;;;;;;22.94;98.81;96686.88;5000571;28;20203;-77
2022/09/05 11:11:12;;;;;;;4.70;2.90;;;;;;;22.89;99.11;96677.84;5015731;28;20231;-76
2022/09/05 11:13:45;;;;;;;3.33;3.00;;;;;;;22.92;100.00;96683.59;5025961;28;20269;-77
2022/09/05 11:16:26;;;;;;;3.95;3.53;;;;;;;22.96;100.00;96676.38;5020539;28;20196;-76
2022/09/05 11:19:03;;;;;;;3.55;2.90;;;;;;;23.06;100.00;96677.28;5023872;28;20270;-76
2022/09/05 11:21:52;;;;;;;3.10;2.80;;;;;;;23.16;99.48;96660.59;5030163;28;20306;-80
2022/09/05 11:24:31;;;;;;;5.45;3.15;;;;;;;23.17;99.54;96657.53;5029226;28;20231;-76
2022/09/05 11:27:04;;;;;;;4.53;3.10;;;;;;;23.01;95.26;96648.72;5028970;28;20211;-80
2022/09/05 11:29:37;;;;;;;3.92;3.25;;;;;;;22.96;97.21;96653.53;5020103;28;20215;-76
2022/09/05 11:32:27;;;;;;;3.90;3.47;;;;;;;22.94;93.90;96653.00;5019922;28;20212;-76
2022/09/05 11:35:07;;;;;;;3.83;3.42;;;;;;;22.94;99.77;96650.25;5021357;28;20227;-77
2022/09/05 11:37:58;;;;;;;4.55;3.38;;;;;;;22.84;100.00;96644.91;5024207;28;20230;-80
2022/09/05 11:40:43;;;;;;;3.67;3.05;;;;;;;22.79;100.00;96645.00;5002949;28;20254;-76
2022/09/05 11:43:42;;;;;;;3.72;3.22;;;;;;;22.73;100.00;96646.16;5020466;28;20211;-79
2022/09/05 11:46:28;;;;;;;5.80;3.67;;;;;;;22.78;100.00;96635.94;5013392;28;20289;-75
2022/09/05 11:49:43;;;;;;;4.63;3.90;;;;;;;22.80;100.00;96635.59;5023436;28;20211;-75
2022/09/05 11:52:50;;;;;;;3.35;3.05;;;;;;;22.79;100.00;96634.00;5023886;28;20230;-77
2022/09/05 11:55:51;;;;;;;4.07;3.17;;;;;;;22.59;100.00;96633.19;5010171;28;20243;-75
2022/09/05 11:58:45;;;;;;;3.80;3.45;;;;;;;22.59;100.00;96630.41;5005338;28;20207;-74
2022/09/05 12:01:20;;;;;;;4.45;3.50;;;;;;;22.67;100.00;96628.09;4996870;28;20240;-76
2022/09/05 12:04:15;;;;;;;4.18;3.80;;;;;;;22.77;100.00;96633.47;4997846;28;20257;-75
2022/09/05 12:07:10;;;;;;;3.75;3.35;;;;;;;22.84;100.00;96617.38;5025230;28;20303;-80
2022/09/05 12:09:55;;;;;;;4.82;3.10;;;;;;;22.89;100.00;96617.28;5023801;28;20306;-76
2022/09/05 12:12:34;;;;;;;3.60;3.25;;;;;;;22.94;100.00;96620.78;5005819;28;20211;-80
2022/09/05 12:15:22;;;;;;;3.65;3.35;;;;;;;22.91;100.00;96613.09;5008415;28;20218;-80
2022/09/05 12:18:02;;;;;;;3.78;3.40;;;;;;;22.85;100.00;96619.00;5012128;28;20208;-77
2022/09/05 12:20:41;;;;;;;3.90;3.10;;;;;;;22.79;100.00;96609.22;5018378;28;20222;-77
2022/09/05 12:23:17;;;;;;;3.25;2.97;;;;;;;22.78;100.00;96607.56;5002466;28;20203;-77
2022/09/05 12:25:56;;;;;;;4.95;3.30;;;;;;;22.83;100.00;96612.97;5020789;28;20337;-75
2022/09/05 12:28:27;;;;;;;3.83;3.15;;;;;;;22.84;100.00;96600.84;5007159;28;20211;-76
2022/09/05 12:31:11;;;;;;;3.75;3.00;;;;;;;22.97;100.00;96602.81;5009774;28;20226;-76
2022/09/05 12:33:38;;;;;;;3.28;2.97;;;;;;;23.08;100.00;96604.25;5024051;28;20203;-76
2022/09/05 12:36:14;;;;;;;5.15;3.00;;;;;;;23.05;100.00;96596.63;5011995;28;20254;-76